Time;durP1;ratioP1;P1;durP2;ratioP2;P2;SDS_P1;SDS_P2;PMS_P1;PMS_P2;Temp;Humidity;BMP_temperature;BMP_pressure;BME280_temperature;BME280_humidity;BME280_pressure;Samples;Min_cycle;Max_cycle;Signal;HPM_P1;HPM_P2
2022/01/15 00:00:05;;;;;;;24.83;22.10;;;;;21.50;102143.00;;;;2088868;28;20220;-62
2022/01/15 00:01:06;;;;;;;25.52;22.23;;;;;21.50;102145.00;;;;2086937;28;20213;-62
2022/01/15 00:02:06;;;;;;;26.87;22.80;;;;;21.50;102129.00;;;;2087958;28;20209;-62
2022/01/15 00:03:08;;;;;;;25.33;22.30;;;;;21.50;102131.00;;;;2089006;28;20217;-62
2022/01/15 00:04:08;;;;;;;26.40;22.10;;;;;21.50;102138.00;;;;2088838;28;20224;-62
2022/01/15 00:05:09;;;;;;;25.30;22.57;;;;;21.50;102131.00;;;;2081939;28;20307;-62
2022/01/15 00:06:09;;;;;;;22.93;20.53;;;;;21.50;102129.00;;;;2088948;28;20584;-62
2022/01/15 00:07:09;;;;;;;24.70;21.40;;;;;21.50;102135.00;;;;2088818;28;20746;-62
2022/01/15 00:08:10;;;;;;;24.20;21.40;;;;;21.40;102130.00;;;;2088777;28;20205;-62
2022/01/15 00:09:10;;;;;;;22.30;19.90;;;;;21.40;102133.00;;;;2088632;28;20217;-62
2022/01/15 00:10:11;;;;;;;22.17;19.77;;;;;21.40;102133.00;;;;2088789;28;20220;-62
2022/01/15 00:11:11;;;;;;;23.87;21.27;;;;;21.40;102133.00;;;;2088599;28;20227;-62
2022/01/15 00:12:11;;;;;;;22.40;20.10;;;;;21.40;102128.00;;;;2088856;28;20703;-62
2022/01/15 00:13:22;;;;;;;21.63;19.00;;;;;21.40;102136.00;;;;2088868;28;20208;-62
2022/01/15 00:14:30;;;;;;;22.48;19.83;;;;;21.40;102127.00;;;;2088946;28;20221;-61
2022/01/15 00:15:37;;;;;;;24.48;19.73;;;;;21.40;102135.00;;;;2088740;28;20244;-62
2022/01/15 00:16:46;;;;;;;21.75;19.40;;;;;21.40;102128.00;;;;2088659;28;20295;-62
2022/01/15 00:17:57;;;;;;;22.30;19.02;;;;;21.40;102129.00;;;;2088654;28;20254;-62
2022/01/15 00:20:05;;;;;;;21.88;18.27;;;;;21.40;102069.00;;;;2088742;28;20244;-62
2022/01/15 00:21:06;;;;;;;20.30;18.10;;;;;21.40;102126.00;;;;2088075;28;20209;-62
2022/01/15 00:22:06;;;;;;;19.80;17.70;;;;;21.40;102117.00;;;;2088904;28;20208;-62
2022/01/15 00:23:07;;;;;;;19.97;17.77;;;;;21.40;102121.00;;;;2088773;28;20662;-62
2022/01/15 00:24:07;;;;;;;21.60;17.50;;;;;21.40;102122.00;;;;2088814;28;20459;-62
2022/01/15 00:25:08;;;;;;;21.20;17.70;;;;;21.40;102121.00;;;;2088797;28;20274;-62
2022/01/15 00:26:08;;;;;;;20.83;18.17;;;;;21.30;102122.00;;;;2088475;28;20213;-62
2022/01/15 00:27:09;;;;;;;18.37;16.10;;;;;21.30;102119.00;;;;2088638;28;20221;-62
2022/01/15 00:28:09;;;;;;;20.13;17.50;;;;;21.10;102113.00;;;;2088025;28;20696;-62
2022/01/15 00:29:09;;;;;;;19.37;17.27;;;;;21.30;102106.00;;;;2087895;28;20300;-62
2022/01/15 00:30:10;;;;;;;19.53;17.47;;;;;21.30;102105.00;;;;2088687;28;20209;-62
2022/01/15 00:31:10;;;;;;;18.50;16.53;;;;;21.30;102113.00;;;;2087642;28;20208;-62
2022/01/15 00:32:11;;;;;;;18.60;16.70;;;;;21.40;102118.00;;;;2087318;28;20216;-62
2022/01/15 00:33:11;;;;;;;18.73;16.70;;;;;21.30;102120.00;;;;2085449;28;20684;-62
2022/01/15 00:34:11;;;;;;;18.53;16.53;;;;;21.30;102115.00;;;;2086550;28;20722;-62
2022/01/15 00:35:13;;;;;;;20.23;17.37;;;;;21.30;102122.00;;;;2087302;28;20680;-62
2022/01/15 00:36:13;;;;;;;17.23;15.43;;;;;21.30;102132.00;;;;2088648;28;20634;-62
2022/01/15 00:37:13;;;;;;;17.60;15.40;;;;;21.30;102119.00;;;;2088616;28;20212;-62
2022/01/15 00:38:14;;;;;;;18.07;16.17;;;;;21.30;102116.00;;;;2088794;28;20239;-62
2022/01/15 00:39:14;;;;;;;18.13;16.17;;;;;21.30;102126.00;;;;2088696;28;20220;-62
2022/01/15 00:40:17;;;;;;;16.60;14.90;;;;;21.30;102115.00;;;;2088398;28;20205;-62
2022/01/15 00:41:18;;;;;;;17.95;16.08;;;;;21.30;102112.00;;;;2087837;28;20209;-62
2022/01/15 00:42:18;;;;;;;17.55;15.75;;;;;21.30;102106.00;;;;2087932;28;20616;-62
2022/01/15 00:43:19;;;;;;;17.00;15.30;;;;;21.30;102108.00;;;;2086759;28;20244;-62
2022/01/15 00:44:19;;;;;;;17.70;15.87;;;;;21.30;102098.00;;;;2088427;28;20282;-62
2022/01/15 00:45:22;;;;;;;17.53;15.70;;;;;21.30;102104.00;;;;2088443;28;20300;-62
2022/01/15 00:46:22;;;;;;;16.80;15.10;;;;;21.30;102112.00;;;;2088563;28;20217;-62
2022/01/15 00:47:22;;;;;;;17.87;15.80;;;;;21.30;102114.00;;;;2088610;28;20213;-62
2022/01/15 00:48:23;;;;;;;15.63;13.97;;;;;21.30;102111.00;;;;2088536;28;20281;-62
2022/01/15 00:49:24;;;;;;;16.03;14.33;;;;;21.30;102110.00;;;;2088504;28;20220;-62
2022/01/15 00:50:24;;;;;;;17.30;14.97;;;;;21.30;102107.00;;;;2088332;28;20505;-62
2022/01/15 00:51:25;;;;;;;15.60;14.10;;;;;21.30;102110.00;;;;2088317;28;20217;-62
2022/01/15 00:52:25;;;;;;;16.37;14.50;;;;;21.20;102101.00;;;;2087840;28;22055;-62
2022/01/15 00:53:25;;;;;;;17.50;15.30;;;;;21.20;102093.00;;;;2087874;28;20334;-62
2022/01/15 00:54:26;;;;;;;16.63;14.37;;;;;21.20;102093.00;;;;2088491;28;20274;-62
2022/01/15 00:55:26;;;;;;;16.70;14.90;;;;;21.20;102084.00;;;;2087753;28;20223;-62
2022/01/15 00:56:26;;;;;;;14.80;13.30;;;;;21.20;102092.00;;;;2087363;28;20221;-62
2022/01/15 00:57:27;;;;;;;16.50;14.80;;;;;21.20;102035.00;;;;2088302;28;20216;-62
2022/01/15 00:58:27;;;;;;;16.43;14.37;;;;;21.20;102088.00;;;;2088399;28;20572;-62
2022/01/15 00:59:27;;;;;;;16.53;14.23;;;;;21.20;102092.00;;;;2088477;28;20205;-62
2022/01/15 01:00:28;;;;;;;15.83;14.13;;;;;21.20;102091.00;;;;2088278;28;20213;-62
2022/01/15 01:01:28;;;;;;;16.67;14.33;;;;;21.20;102091.00;;;;2087570;28;20216;-62
2022/01/15 01:02:28;;;;;;;15.10;13.50;;;;;21.20;102090.00;;;;2087897;28;20212;-62
2022/01/15 01:03:29;;;;;;;15.13;13.53;;;;;21.20;102083.00;;;;2088384;28;20256;-62
2022/01/15 01:04:29;;;;;;;15.20;13.70;;;;;21.20;102089.00;;;;2088395;28;20208;-62
2022/01/15 01:05:29;;;;;;;14.87;13.30;;;;;21.20;102097.00;;;;2088372;28;20219;-62
2022/01/15 01:06:30;;;;;;;15.27;13.73;;;;;21.20;102094.00;;;;2088283;28;20208;-62
2022/01/15 01:07:30;;;;;;;15.63;13.40;;;;;21.20;102089.00;;;;2088240;28;20204;-62
2022/01/15 01:08:30;;;;;;;17.73;14.33;;;;;21.10;102083.00;;;;2088390;28;20213;-62
2022/01/15 01:11:10;;;;;;;15.02;13.35;;;;;21.10;102077.00;;;;2054204;28;20231;-62
2022/01/15 01:12:26;;;;;;;14.40;13.00;;;;;21.10;102072.00;;;;2053083;28;20219;-62
2022/01/15 01:20:18;;;;;;;13.50;12.00;;;;;21.10;102072.00;;;;2062197;28;20242;-62
2022/01/15 01:23:30;;;;;;;13.93;12.27;;;;;21.10;102066.00;;;;2062299;28;20292;-62
2022/01/15 01:24:31;;;;;;;13.57;12.17;;;;;21.10;102071.00;;;;2061919;28;20215;-62
2022/01/15 01:25:38;;;;;;;12.80;11.50;;;;;21.10;102066.00;;;;2070056;28;20257;-62
2022/01/15 01:27:48;;;;;;;14.50;13.00;;;;;21.10;102056.00;;;;2087578;28;20342;-62
2022/01/15 01:28:57;;;;;;;13.40;12.00;;;;;21.00;102061.00;;;;2088053;28;20217;-60
2022/01/15 01:32:10;;;;;;;12.98;11.68;;;;;21.00;102065.00;;;;2088085;28;20259;-61
2022/01/15 01:33:32;;;;;;;14.63;13.00;;;;;21.10;102058.00;;;;2086105;28;20571;-62
2022/01/15 01:34:36;;;;;;;13.43;11.95;;;;;21.00;102055.00;;;;2085665;28;20213;-62
2022/01/15 01:35:43;;;;;;;15.60;12.60;;;;;21.00;102054.00;;;;2088270;28;20602;-61
2022/01/15 01:36:54;;;;;;;12.65;11.43;;;;;21.00;102044.00;;;;2084190;28;20209;-62
2022/01/15 01:37:58;;;;;;;12.57;11.25;;;;;21.00;102049.00;;;;2087364;28;20213;-62
2022/01/15 01:39:02;;;;;;;12.80;10.95;;;;;21.00;102042.00;;;;2088084;28;20212;-61
2022/01/15 01:40:23;;;;;;;13.55;10.93;;;;;21.00;102038.00;;;;2087360;28;20294;-62
2022/01/15 01:41:24;;;;;;;12.32;11.02;;;;;21.00;102043.00;;;;2087346;28;20240;-62
2022/01/15 01:44:25;;;;;;;12.77;11.53;;;;;21.10;102046.00;;;;2088266;28;20736;-61
2022/01/15 01:45:25;;;;;;;12.40;11.20;;;;;21.00;102049.00;;;;2088172;28;20208;-62
2022/01/15 01:47:39;;;;;;;11.93;10.73;;;;;21.00;102043.00;;;;2088097;28;20208;-62
2022/01/15 01:48:40;;;;;;;12.13;10.82;;;;;21.00;102054.00;;;;2087588;28;20217;-62
2022/01/15 01:49:42;;;;;;;12.00;10.30;;;;;21.00;102044.00;;;;2088042;28;20212;-62
2022/01/15 01:50:42;;;;;;;11.88;10.50;;;;;21.00;102046.00;;;;2087699;28;20220;-61
2022/01/15 01:51:42;;;;;;;13.17;11.87;;;;;21.00;102044.00;;;;2088164;28;20583;-62
2022/01/15 01:52:45;;;;;;;11.43;10.27;;;;;21.00;102046.00;;;;2087306;28;20599;-62
2022/01/15 01:53:45;;;;;;;10.70;9.68;;;;;21.00;102053.00;;;;2083465;28;20354;-61
2022/01/15 01:54:45;;;;;;;12.07;10.73;;;;;21.00;102050.00;;;;2087191;28;20216;-62
2022/01/15 01:55:46;;;;;;;12.23;10.77;;;;;21.00;102053.00;;;;2087342;28;20233;-62
2022/01/15 01:56:47;;;;;;;11.50;10.30;;;;;20.90;102053.00;;;;2086111;28;20252;-62
2022/01/15 01:57:47;;;;;;;11.73;10.48;;;;;20.90;102052.00;;;;2086915;28;20209;-62
2022/01/15 01:58:48;;;;;;;10.23;9.23;;;;;21.00;102049.00;;;;2087186;28;20282;-61
2022/01/15 01:59:48;;;;;;;10.67;9.50;;;;;20.90;102045.00;;;;2087464;28;20209;-62
2022/01/15 02:00:48;;;;;;;11.00;9.77;;;;;20.90;102048.00;;;;2087049;28;20212;-62
2022/01/15 02:01:49;;;;;;;10.27;9.20;;;;;20.90;102045.00;;;;2087026;28;20215;-62
2022/01/15 02:02:49;;;;;;;10.97;9.83;;;;;20.90;102044.00;;;;2087875;28;20240;-62
2022/01/15 02:03:50;;;;;;;11.60;10.47;;;;;20.90;102043.00;;;;2087899;28;20263;-62
2022/01/15 02:04:50;;;;;;;12.23;10.67;;;;;20.90;102048.00;;;;2088070;28;20213;-62
2022/01/15 02:05:51;;;;;;;11.00;9.90;;;;;20.90;102043.00;;;;2087994;28;20696;-62
2022/01/15 02:06:51;;;;;;;11.50;10.30;;;;;20.90;102034.00;;;;2087189;28;20782;-62
2022/01/15 02:07:52;;;;;;;10.83;9.73;;;;;20.90;102040.00;;;;2087296;28;21067;-62
2022/01/15 02:08:54;;;;;;;11.23;9.90;;;;;20.90;102039.00;;;;2087997;28;20212;-62
2022/01/15 02:09:55;;;;;;;10.80;9.70;;;;;20.90;102030.00;;;;2087702;28;20733;-62
2022/01/15 02:10:57;;;;;;;11.10;10.00;;;;;20.90;102034.00;;;;2087705;28;20213;-62
2022/01/15 02:11:57;;;;;;;9.98;8.98;;;;;20.90;102033.00;;;;2087261;28;20270;-62
2022/01/15 02:13:00;;;;;;;11.50;10.30;;;;;20.90;102029.00;;;;2087219;28;20270;-62
2022/01/15 02:14:01;;;;;;;10.55;9.15;;;;;20.90;102032.00;;;;2086528;28;20307;-62
2022/01/15 02:15:20;;;;;;;11.20;10.00;;;;;20.90;102038.00;;;;2088028;28;20899;-62
2022/01/15 02:16:21;;;;;;;10.43;9.43;;;;;20.90;102034.00;;;;2084702;28;20258;-62
2022/01/15 02:17:22;;;;;;;10.03;9.03;;;;;20.90;102043.00;;;;2078702;28;20213;-62
2022/01/15 02:18:22;;;;;;;10.45;9.43;;;;;20.90;102035.00;;;;2091770;28;20205;-62
2022/01/15 02:19:33;;;;;;;10.50;9.40;;;;;20.90;102027.00;;;;2091006;28;20703;-62
2022/01/15 02:24:12;;;;;;;10.20;9.18;;;;;20.90;102036.00;;;;2087275;28;20212;-62
2022/01/15 02:25:12;;;;;;;9.67;8.77;;;;;20.80;102030.00;;;;2087168;28;20209;-62
2022/01/15 02:26:18;;;;;;;9.90;8.90;;;;;20.90;102034.00;;;;2087951;28;20215;-61
2022/01/15 02:27:18;;;;;;;9.60;8.60;;;;;20.90;102031.00;;;;2085670;28;20216;-62
2022/01/15 02:28:26;;;;;;;9.83;8.83;;;;;20.90;102030.00;;;;2087240;28;20209;-62
2022/01/15 02:29:26;;;;;;;9.90;8.90;;;;;20.80;102023.00;;;;2084217;28;20212;-62
2022/01/15 02:30:27;;;;;;;9.80;8.80;;;;;20.80;102024.00;;;;2086947;28;20708;-62
2022/01/15 02:31:28;;;;;;;9.50;8.33;;;;;20.80;102018.00;;;;2087178;28;20213;-62
2022/01/15 02:32:31;;;;;;;8.38;7.50;;;;;20.80;102018.00;;;;2087783;28;21173;-62
2022/01/15 02:33:32;;;;;;;9.82;8.82;;;;;20.80;102011.00;;;;2087810;28;20204;-62
2022/01/15 02:34:32;;;;;;;9.43;8.50;;;;;20.90;102015.00;;;;2087793;28;20769;-62
2022/01/15 02:35:32;;;;;;;9.67;8.67;;;;;20.80;102023.00;;;;2087842;28;20215;-62
2022/01/15 02:36:34;;;;;;;11.13;9.33;;;;;20.80;102019.00;;;;2083867;28;20216;-62
2022/01/15 02:37:35;;;;;;;9.45;8.50;;;;;20.80;102017.00;;;;2087568;28;20212;-62
2022/01/15 02:38:36;;;;;;;9.43;8.50;;;;;20.80;102018.00;;;;2086985;28;20215;-62
2022/01/15 02:39:37;;;;;;;9.73;8.73;;;;;20.80;102018.00;;;;2086980;28;20610;-62
2022/01/15 02:40:37;;;;;;;9.40;8.50;;;;;20.80;102019.00;;;;2087391;28;20296;-62
2022/01/15 02:41:38;;;;;;;9.70;8.70;;;;;20.80;102015.00;;;;2087459;28;20678;-62
2022/01/15 02:42:38;;;;;;;9.50;8.50;;;;;20.80;102012.00;;;;2088778;28;20656;-61
2022/01/15 02:43:39;;;;;;;9.70;8.70;;;;;20.80;102013.00;;;;2089601;28;20483;-62
2022/01/15 02:44:42;;;;;;;9.83;8.83;;;;;20.80;102015.00;;;;2089318;28;20208;-62
2022/01/15 02:45:46;;;;;;;8.45;7.65;;;;;20.80;102025.00;;;;2089483;28;20213;-62
2022/01/15 02:48:02;;;;;;;8.68;7.60;;;;;20.80;102023.00;;;;2085762;28;20247;-62
2022/01/15 02:49:04;;;;;;;8.57;7.72;;;;;20.80;102013.00;;;;2088470;28;20224;-62
2022/01/15 02:50:07;;;;;;;8.48;7.57;;;;;20.80;102013.00;;;;2081321;28;20210;-62
2022/01/15 02:51:07;;;;;;;9.57;8.68;;;;;20.80;102008.00;;;;2080413;28;20365;-62
2022/01/15 02:52:07;;;;;;;9.50;8.60;;;;;20.80;102007.00;;;;2080699;28;20213;-62
2022/01/15 02:53:08;;;;;;;9.20;8.30;;;;;20.80;102004.00;;;;2089435;28;20267;-62
2022/01/15 02:54:08;;;;;;;8.00;7.20;;;;;20.80;102003.00;;;;2089269;28;20248;-61
2022/01/15 02:55:09;;;;;;;8.93;8.07;;;;;20.70;102010.00;;;;2089147;28;20848;-62
2022/01/15 02:56:09;;;;;;;8.97;7.93;;;;;20.70;102011.00;;;;2089378;28;20244;-62
2022/01/15 02:57:10;;;;;;;9.00;8.10;;;;;20.80;102008.00;;;;2089321;28;20247;-62
2022/01/15 02:58:10;;;;;;;8.10;7.30;;;;;20.80;101999.00;;;;2085671;28;20295;-62
2022/01/15 02:59:19;;;;;;;8.57;7.60;;;;;20.80;102000.00;;;;2089423;28;20710;-62
2022/01/15 03:00:20;;;;;;;7.70;7.00;;;;;20.70;101993.00;;;;2088854;28;20303;-62
2022/01/15 03:01:20;;;;;;;8.87;7.70;;;;;20.70;101995.00;;;;2084466;28;20219;-62
2022/01/15 03:02:21;;;;;;;8.87;7.97;;;;;20.70;101992.00;;;;2088251;28;20213;-62
2022/01/15 03:03:21;;;;;;;7.63;6.93;;;;;20.70;101995.00;;;;2088938;28;20675;-62
2022/01/15 03:04:21;;;;;;;8.53;7.67;;;;;20.70;101990.00;;;;2089022;28;20209;-62
2022/01/15 03:05:22;;;;;;;7.60;6.90;;;;;20.70;101983.00;;;;2089037;28;20217;-62
2022/01/15 03:06:22;;;;;;;8.63;7.73;;;;;20.70;101987.00;;;;2088618;28;20303;-62
2022/01/15 03:07:22;;;;;;;8.03;7.23;;;;;20.70;101991.00;;;;2088867;28;20692;-62
2022/01/15 03:08:23;;;;;;;8.70;7.37;;;;;20.70;101982.00;;;;2088845;28;20217;-62
2022/01/15 03:09:23;;;;;;;7.30;6.50;;;;;20.70;101978.00;;;;2088490;28;20240;-62
2022/01/15 03:10:23;;;;;;;7.83;7.00;;;;;20.70;101979.00;;;;2088557;28;20222;-62
2022/01/15 03:11:24;;;;;;;7.17;6.47;;;;;20.70;101976.00;;;;2088921;28;20208;-62
2022/01/15 03:12:24;;;;;;;7.57;6.87;;;;;20.70;101967.00;;;;2088884;28;20239;-62
2022/01/15 03:13:24;;;;;;;8.10;7.17;;;;;20.70;101974.00;;;;2088591;28;20269;-62
2022/01/15 03:14:25;;;;;;;7.47;6.70;;;;;20.70;101974.00;;;;2088538;28;20232;-62
2022/01/15 03:15:26;;;;;;;7.20;6.30;;;;;20.70;101971.00;;;;2088746;28;20278;-62
2022/01/15 03:16:26;;;;;;;7.03;6.43;;;;;20.70;101971.00;;;;2089116;28;20443;-62
2022/01/15 03:17:27;;;;;;;7.60;6.80;;;;;20.70;101967.00;;;;2088809;28;20213;-62
2022/01/15 03:18:27;;;;;;;9.33;7.27;;;;;20.70;101961.00;;;;2088113;28;20213;-62
2022/01/15 03:19:27;;;;;;;8.03;7.23;;;;;20.70;101975.00;;;;2079605;28;20332;-62
2022/01/15 03:20:28;;;;;;;7.90;7.10;;;;;20.70;101969.00;;;;2087846;28;20247;-62
2022/01/15 03:21:28;;;;;;;7.77;7.00;;;;;20.70;101970.00;;;;2088872;28;20243;-62
2022/01/15 03:22:28;;;;;;;7.53;6.70;;;;;20.70;101967.00;;;;2089108;28;20222;-62
2022/01/15 03:23:29;;;;;;;8.00;7.20;;;;;20.70;101967.00;;;;2088623;28;20212;-61
2022/01/15 03:24:29;;;;;;;7.53;6.73;;;;;20.70;101952.00;;;;2089173;28;20852;-62
2022/01/15 03:25:29;;;;;;;7.30;6.30;;;;;20.70;101955.00;;;;2085183;28;20734;-62
2022/01/15 03:26:30;;;;;;;7.40;6.70;;;;;20.60;101956.00;;;;2088123;28;20786;-62
2022/01/15 03:27:30;;;;;;;7.40;6.70;;;;;20.60;101962.00;;;;2080330;28;20205;-62
2022/01/15 03:28:31;;;;;;;7.00;6.40;;;;;20.70;101960.00;;;;2088451;28;20279;-62
2022/01/15 03:29:31;;;;;;;7.23;6.53;;;;;20.70;101965.00;;;;2089193;28;20249;-62
2022/01/15 03:30:31;;;;;;;6.80;6.10;;;;;20.70;101959.00;;;;2088896;28;20305;-62
2022/01/15 03:31:32;;;;;;;7.40;6.70;;;;;20.60;101961.00;;;;2089051;28;20209;-62
2022/01/15 03:32:32;;;;;;;7.50;5.87;;;;;20.60;101953.00;;;;2088676;28;20205;-62
2022/01/15 03:33:32;;;;;;;7.53;6.73;;;;;20.60;101950.00;;;;2087602;28;20306;-62
2022/01/15 03:34:33;;;;;;;6.67;5.97;;;;;20.60;101956.00;;;;2088115;28;20209;-62
2022/01/15 03:35:33;;;;;;;6.77;6.10;;;;;20.60;101949.00;;;;2084643;28;20205;-62
2022/01/15 03:36:34;;;;;;;7.60;6.90;;;;;20.60;101949.00;;;;2085253;28;20291;-62
2022/01/15 03:37:34;;;;;;;6.27;5.70;;;;;20.60;101955.00;;;;2087810;28;20200;-62
2022/01/15 03:38:34;;;;;;;6.20;5.60;;;;;20.60;101950.00;;;;2088952;28;20236;-62
2022/01/15 03:39:35;;;;;;;6.33;5.77;;;;;20.60;101945.00;;;;2088860;28;20235;-61
2022/01/15 03:40:36;;;;;;;6.67;5.90;;;;;20.60;101953.00;;;;2088697;28;20223;-62
2022/01/15 03:41:36;;;;;;;6.20;5.60;;;;;20.60;101952.00;;;;2089065;28;20193;-62
2022/01/15 03:42:36;;;;;;;6.10;5.50;;;;;20.60;101947.00;;;;2089162;28;20758;-62
2022/01/15 03:43:37;;;;;;;6.50;5.90;;;;;20.60;101943.00;;;;2088896;28;20740;-62
2022/01/15 03:44:41;;;;;;;6.70;6.03;;;;;20.60;101938.00;;;;2088988;28;20599;-62
2022/01/15 03:45:41;;;;;;;5.97;5.38;;;;;20.60;101935.00;;;;2089054;28;20288;-62
2022/01/15 03:46:41;;;;;;;6.10;5.50;;;;;20.60;101936.00;;;;2089026;28;20284;-62
2022/01/15 03:47:44;;;;;;;6.50;5.90;;;;;20.60;101938.00;;;;2089072;28;20703;-61
2022/01/15 03:48:46;;;;;;;6.78;6.10;;;;;20.60;101938.00;;;;2088727;28;20295;-62
2022/01/15 03:49:47;;;;;;;6.40;5.80;;;;;20.60;101929.00;;;;2089028;28;20216;-62
2022/01/15 03:50:47;;;;;;;6.03;5.43;;;;;20.60;101942.00;;;;2080207;28;20220;-62
2022/01/15 03:51:47;;;;;;;6.73;6.03;;;;;20.60;101934.00;;;;2089042;28;20223;-62
2022/01/15 03:52:48;;;;;;;6.20;5.60;;;;;20.60;101931.00;;;;2088978;28;20212;-62
2022/01/15 03:53:48;;;;;;;5.20;4.70;;;;;20.60;101932.00;;;;2087874;28;20217;-62
2022/01/15 03:54:48;;;;;;;6.53;5.93;;;;;20.60;101928.00;;;;2088263;28;20300;-62
2022/01/15 03:55:49;;;;;;;6.33;5.70;;;;;20.50;101927.00;;;;2088111;28;20209;-62
2022/01/15 03:56:49;;;;;;;5.83;5.30;;;;;20.60;101931.00;;;;2088844;28;20263;-62
2022/01/15 03:57:49;;;;;;;6.33;5.73;;;;;20.60;101923.00;;;;2087276;28;20220;-62
2022/01/15 03:58:50;;;;;;;5.77;5.27;;;;;20.50;101923.00;;;;2089084;28;21248;-61
2022/01/15 03:59:50;;;;;;;5.67;5.17;;;;;20.50;101923.00;;;;2089074;28;20644;-61
2022/01/15 04:00:51;;;;;;;5.47;5.03;;;;;20.50;101923.00;;;;2088529;28;20312;-62
2022/01/15 04:01:51;;;;;;;5.20;4.70;;;;;20.60;101929.00;;;;2088885;28;20703;-62
2022/01/15 04:02:53;;;;;;;5.33;4.83;;;;;20.60;101923.00;;;;2079989;28;20222;-62
2022/01/15 04:03:53;;;;;;;5.80;5.20;;;;;20.50;101923.00;;;;2079698;28;20216;-62
2022/01/15 04:04:53;;;;;;;5.10;4.60;;;;;20.60;101924.00;;;;2088853;28;20208;-62
2022/01/15 04:05:54;;;;;;;5.23;4.73;;;;;20.50;101925.00;;;;2087843;28;20292;-62
2022/01/15 04:06:54;;;;;;;5.13;4.73;;;;;20.50;101919.00;;;;2088660;28;20221;-62
2022/01/15 04:07:54;;;;;;;5.17;4.67;;;;;20.50;101914.00;;;;2088005;28;20314;-62
2022/01/15 04:08:55;;;;;;;6.17;5.17;;;;;20.50;101908.00;;;;2088239;28;20212;-62
2022/01/15 04:09:55;;;;;;;5.63;5.13;;;;;20.50;101901.00;;;;2088896;28;20223;-63
2022/01/15 04:10:55;;;;;;;5.50;5.00;;;;;20.50;101902.00;;;;2088712;28;20229;-62
2022/01/15 04:11:56;;;;;;;5.10;4.67;;;;;20.50;101896.00;;;;2088856;28;20217;-62
2022/01/15 04:12:56;;;;;;;5.67;5.20;;;;;20.50;101891.00;;;;2088719;28;20224;-62
2022/01/15 04:13:56;;;;;;;5.20;4.70;;;;;20.50;101893.00;;;;2088764;28;20217;-62
2022/01/15 04:14:57;;;;;;;5.20;4.70;;;;;20.50;101889.00;;;;2088737;28;20235;-62
2022/01/15 04:15:57;;;;;;;4.80;4.40;;;;;20.50;101893.00;;;;2088824;28;20212;-62
2022/01/15 04:16:58;;;;;;;4.43;3.97;;;;;20.50;101878.00;;;;2088691;28;20220;-62
2022/01/15 04:17:58;;;;;;;4.57;4.13;;;;;20.50;101888.00;;;;2088654;28;20216;-62
2022/01/15 04:18:59;;;;;;;5.00;4.40;;;;;20.50;101883.00;;;;2088323;28;20212;-62
2022/01/15 04:19:59;;;;;;;5.23;4.73;;;;;20.40;101884.00;;;;2088076;28;20256;-62
2022/01/15 04:20:59;;;;;;;5.00;4.60;;;;;20.50;101892.00;;;;2088531;28;20844;-62
2022/01/15 04:22:00;;;;;;;4.77;4.30;;;;;20.50;101884.00;;;;2088866;28;20700;-62
2022/01/15 04:23:00;;;;;;;4.67;4.27;;;;;20.50;101890.00;;;;2088689;28;20684;-62
2022/01/15 04:24:00;;;;;;;4.60;4.20;;;;;20.50;101888.00;;;;2088756;28;20220;-62
2022/01/15 04:25:01;;;;;;;4.53;4.13;;;;;20.50;101895.00;;;;2088212;28;20221;-62
2022/01/15 04:26:01;;;;;;;4.40;4.00;;;;;20.50;101883.00;;;;2085079;28;20307;-62
2022/01/15 04:27:01;;;;;;;5.00;4.57;;;;;20.40;101888.00;;;;2088633;28;20224;-61
2022/01/15 04:28:07;;;;;;;4.70;4.30;;;;;20.50;101892.00;;;;2088590;28;20763;-62
2022/01/15 04:29:08;;;;;;;4.05;3.65;;;;;20.50;101880.00;;;;2088208;28;20216;-62
2022/01/15 04:30:08;;;;;;;3.63;3.33;;;;;20.50;101885.00;;;;2088020;28;20838;-62
2022/01/15 04:31:09;;;;;;;4.03;3.70;;;;;20.40;101890.00;;;;2088292;28;20216;-62
2022/01/15 04:32:09;;;;;;;4.30;3.90;;;;;20.40;101889.00;;;;2088609;28;20467;-62
2022/01/15 04:33:09;;;;;;;4.17;3.77;;;;;20.50;101886.00;;;;2088624;28;20719;-62
2022/01/15 04:34:10;;;;;;;4.33;3.67;;;;;20.40;101886.00;;;;2088673;28;20584;-62
2022/01/15 04:35:10;;;;;;;3.43;3.13;;;;;20.40;101886.00;;;;2088640;28;20767;-62
2022/01/15 04:36:10;;;;;;;3.60;3.30;;;;;20.40;101886.00;;;;2087837;28;20762;-62
2022/01/15 04:37:15;;;;;;;3.70;3.40;;;;;20.40;101888.00;;;;2087741;28;20217;-62
2022/01/15 04:38:16;;;;;;;3.63;3.33;;;;;20.40;101879.00;;;;2085680;28;20748;-62
2022/01/15 04:39:16;;;;;;;3.77;3.43;;;;;20.40;101883.00;;;;2088349;28;20213;-62
2022/01/15 04:40:16;;;;;;;3.73;3.43;;;;;20.40;101881.00;;;;2088461;28;20291;-62
2022/01/15 04:41:17;;;;;;;3.60;3.30;;;;;20.40;101890.00;;;;2088449;28;20267;-62
2022/01/15 04:42:20;;;;;;;3.70;3.37;;;;;20.40;101877.00;;;;2088692;28;20217;-62
2022/01/15 04:43:21;;;;;;;3.90;3.60;;;;;20.40;101884.00;;;;2088646;28;20994;-62
2022/01/15 04:44:21;;;;;;;4.30;3.70;;;;;20.40;101886.00;;;;2088444;28;20209;-62
2022/01/15 04:45:21;;;;;;;3.70;3.40;;;;;20.40;101883.00;;;;2088412;28;20247;-62
2022/01/15 04:46:22;;;;;;;4.00;3.67;;;;;20.40;101880.00;;;;2088533;28;20205;-62
2022/01/15 04:47:22;;;;;;;3.40;3.10;;;;;20.40;101881.00;;;;2088566;28;20274;-62
2022/01/15 04:48:22;;;;;;;3.90;3.20;;;;;20.40;101881.00;;;;2088360;28;20572;-61
2022/01/15 04:49:23;;;;;;;3.77;3.47;;;;;20.40;101882.00;;;;2087518;28;20308;-61
2022/01/15 04:50:23;;;;;;;3.43;3.13;;;;;20.40;101876.00;;;;2087683;28;20213;-62
2022/01/15 04:51:23;;;;;;;3.50;3.20;;;;;20.40;101875.00;;;;2088426;28;20283;-62
2022/01/15 04:52:24;;;;;;;4.00;3.57;;;;;20.40;101875.00;;;;2088328;28;20676;-62
2022/01/15 04:53:24;;;;;;;3.43;3.17;;;;;20.40;101878.00;;;;2088581;28;20254;-61
2022/01/15 04:54:24;;;;;;;3.60;3.17;;;;;20.40;101876.00;;;;2088496;28;20216;-62
2022/01/15 04:55:25;;;;;;;3.50;3.20;;;;;20.30;101874.00;;;;2088555;28;20216;-62
2022/01/15 04:56:25;;;;;;;3.50;3.20;;;;;20.40;101880.00;;;;2088436;28;20197;-62
2022/01/15 04:57:26;;;;;;;3.30;3.00;;;;;20.40;101885.00;;;;2088496;28;20213;-62
2022/01/15 04:58:27;;;;;;;3.50;3.20;;;;;20.40;101886.00;;;;2088426;28;20205;-62
2022/01/15 04:59:28;;;;;;;3.30;3.00;;;;;20.40;101890.00;;;;2088326;28;20197;-62
2022/01/15 05:00:28;;;;;;;3.57;2.93;;;;;20.40;101890.00;;;;2088082;28;20217;-62
2022/01/15 05:01:28;;;;;;;3.47;3.17;;;;;20.40;101880.00;;;;2087700;28;20209;-61
2022/01/15 05:02:29;;;;;;;3.30;3.00;;;;;20.20;101882.00;;;;2087699;28;20304;-62
2022/01/15 05:03:29;;;;;;;3.50;3.20;;;;;20.40;101882.00;;;;2088547;28;20222;-62
2022/01/15 05:04:29;;;;;;;2.90;2.60;;;;;20.40;101878.00;;;;2088249;28;20216;-62
2022/01/15 05:05:30;;;;;;;3.30;3.00;;;;;20.40;101883.00;;;;2088211;28;20235;-62
2022/01/15 05:06:30;;;;;;;3.17;2.87;;;;;20.40;101877.00;;;;2088395;28;20216;-62
2022/01/15 05:07:30;;;;;;;3.07;2.80;;;;;20.40;101876.00;;;;2088288;28;20570;-62
2022/01/15 05:08:32;;;;;;;3.40;3.10;;;;;20.40;101876.00;;;;2088378;28;20213;-62
2022/01/15 05:09:32;;;;;;;2.92;2.63;;;;;20.40;101872.00;;;;2085728;28;20221;-62
2022/01/15 05:10:32;;;;;;;2.73;2.53;;;;;20.40;101877.00;;;;2087327;28;20233;-62
2022/01/15 05:11:48;;;;;;;3.07;2.77;;;;;20.30;101874.00;;;;2087776;28;20213;-62
2022/01/15 05:12:49;;;;;;;3.50;2.53;;;;;20.40;101882.00;;;;2088038;28;20232;-62
2022/01/15 05:13:49;;;;;;;2.70;2.50;;;;;20.30;101878.00;;;;2088455;28;20212;-62
2022/01/15 05:14:50;;;;;;;2.77;2.57;;;;;20.30;101873.00;;;;2088367;28;20225;-62
2022/01/15 05:15:50;;;;;;;3.13;2.80;;;;;20.30;101888.00;;;;2087470;28;20250;-62
2022/01/15 05:16:50;;;;;;;3.03;2.77;;;;;20.30;101885.00;;;;2079376;28;20226;-62
2022/01/15 05:17:53;;;;;;;2.73;2.53;;;;;20.30;101881.00;;;;2087545;28;20240;-62
2022/01/15 05:18:54;;;;;;;3.20;2.90;;;;;20.30;101879.00;;;;2085937;28;20232;-62
2022/01/15 05:19:54;;;;;;;2.73;2.43;;;;;20.30;101876.00;;;;2087804;28;20684;-62
2022/01/15 05:20:55;;;;;;;3.07;2.87;;;;;20.30;101883.00;;;;2087706;28;20224;-62
2022/01/15 05:21:56;;;;;;;2.47;2.27;;;;;20.30;101875.00;;;;2087989;28;20213;-62
2022/01/15 05:22:57;;;;;;;3.35;3.05;;;;;20.30;101872.00;;;;2087337;28;20254;-62